Time,TemperatureF,DewpointF,PressureIn,WindDirection,WindDirectionDegrees,WindSpeedMPH,WindSpeedGustMPH,Humidity,HourlyPrecipIn,Conditions,Clouds,dailyrainin,SoftwareType,DateUTC
2014-02-01 00:03:00,25.7,22.0,30.14,SSE,151,0.0,1.0,84,0.00,,,0.00,weatherlink.com 1.10,2014-02-01 05:03:00,
2014-02-01 00:18:00,25.4,21.0,30.14,SSE,150,0.0,1.0,84,0.00,,,0.00,weatherlink.com 1.10,2014-02-01 05:18:00,
2014-02-01 00:33:00,24.8,21.0,30.15,SSE,150,0.0,0.0,85,0.00,,,0.00,weatherlink.com 1.10,2014-02-01 05:33:00,
2014-02-01 00:48:00,24.9,21.0,30.15,SSE,150,0.0,0.0,86,0.00,,,0.00,weatherlink.com 1.10,2014-02-01 05:48:00,
2014-02-01 01:03:00,25.0,21.0,30.15,SSE,150,0.0,0.0,86,0.00,,,0.00,weatherlink.com 1.10,2014-02-01 06:03:00,
2014-02-01 01:18:00,24.5,21.0,30.17,SSE,150,1.0,1.0,86,0.00,,,0.00,weatherlink.com 1.10,2014-02-01 06:18:00,
2014-02-01 01:33:00,24.4,21.0,30.18,SSE,150,1.0,1.0,87,0.00,,,0.00,weatherlink.com 1.10,2014-02-01 06:33:00,
2014-02-01 01:48:00,24.3,21.0,30.19,SSE,150,0.0,1.0,88,0.00,,,0.00,weatherlink.com 1.10,2014-02-01 06:48:00,
2014-02-01 02:03:00,24.4,21.0,30.19,SSE,151,0.0,0.0,88,0.00,,,0.00,weatherlink.com 1.10,2014-02-01 07:03:00,
2014-02-01 02:18:00,24.2,21.0,30.19,SSE,151,0.0,1.0,88,0.00,,,0.00,weatherlink.com 1.10,2014-02-01 07:18:00,
2014-02-01 02:33:00,23.9,21.0,30.19,SSE,150,0.0,0.0,88,0.00,,,0.00,weatherlink.com 1.10,2014-02-01 07:33:00,
2014-02-01 02:49:00,23.6,21.0,30.19,SSE,149,0.0,0.0,89,0.00,,,0.00,weatherlink.com 1.10,2014-02-01 07:49:00,
2014-02-01 03:04:00,23.4,21.0,30.20,SSE,150,0.0,1.0,89,0.00,,,0.00,weatherlink.com 1.10,2014-02-01 08:04:00,
2014-02-01 03:19:00,23.0,20.0,30.21,SSE,150,0.0,0.0,89,0.00,,,0.00,weatherlink.com 1.10,2014-02-01 08:19:00,
2014-02-01 03:34:00,23.0,21.0,30.22,SSE,151,0.0,0.0,90,0.00,,,0.00,weatherlink.com 1.10,2014-02-01 08:34:00,
2014-02-01 03:49:00,23.0,21.0,30.23,SSE,150,0.0,0.0,90,0.00,,,0.00,weatherlink.com 1.10,2014-02-01 08:49:00,
2014-02-01 04:04:00,22.9,20.0,30.23,SSE,150,1.0,1.0,90,0.00,,,0.00,weatherlink.com 1.10,2014-02-01 09:04:00,
2014-02-01 04:19:00,22.5,20.0,30.23,SSE,150,0.0,1.0,90,0.00,,,0.00,weatherlink.com 1.10,2014-02-01 09:19:00,
2014-02-01 04:34:00,22.4,20.0,30.24,SSE,150,0.0,1.0,90,0.00,,,0.00,weatherlink.com 1.10,2014-02-01 09:34:00,
2014-02-01 04:49:00,22.6,20.0,30.24,SSE,150,0.0,0.0,91,0.00,,,0.00,weatherlink.com 1.10,2014-02-01 09:49:00,
2014-02-01 05:04:00,22.8,21.0,30.25,SSE,150,0.0,0.0,91,0.00,,,0.00,weatherlink.com 1.10,2014-02-01 10:04:00,
2014-02-01 05:19:00,22.9,21.0,30.25,SSE,150,0.0,0.0,91,0.00,,,0.00,weatherlink.com 1.10,2014-02-01 10:19:00,
2014-02-01 05:34:00,23.2,21.0,30.25,SSE,150,0.0,0.0,91,0.00,,,0.00,weatherlink.com 1.10,2014-02-01 10:34:00,
2014-02-01 05:49:00,23.3,21.0,30.25,SSE,150,0.0,0.0,91,0.00,,,0.00,weatherlink.com 1.10,2014-02-01 10:49:00,
2014-02-01 06:04:00,23.3,21.0,30.26,SSE,150,0.0,0.0,91,0.00,,,0.00,weatherlink.com 1.10,2014-02-01 11:04:00,
2014-02-01 06:19:00,23.3,21.0,30.27,SSE,151,0.0,1.0,91,0.00,,,0.00,weatherlink.com 1.10,2014-02-01 11:19:00,
2014-02-01 06:34:00,23.0,21.0,30.27,SSE,150,0.0,1.0,91,0.00,,,0.00,weatherlink.com 1.10,2014-02-01 11:34:00,
2014-02-01 06:49:00,22.8,21.0,30.28,SSE,150,0.0,1.0,91,0.00,,,0.00,weatherlink.com 1.10,2014-02-01 11:49:00,
2014-02-01 07:04:00,22.6,20.0,30.29,SSE,150,0.0,1.0,91,0.00,,,0.00,weatherlink.com 1.10,2014-02-01 12:04:00,
2014-02-01 07:19:00,22.7,21.0,30.30,SSE,150,0.0,0.0,91,0.00,,,0.00,weatherlink.com 1.10,2014-02-01 12:19:00,
2014-02-01 07:34:00,22.5,20.0,30.30,SSE,150,0.0,1.0,91,0.00,,,0.00,weatherlink.com 1.10,2014-02-01 12:34:00,
2014-02-01 07:49:00,22.7,21.0,30.30,SSE,150,0.0,0.0,91,0.00,,,0.00,weatherlink.com 1.10,2014-02-01 12:49:00,
2014-02-01 08:04:00,23.6,21.0,30.31,SSE,150,0.0,1.0,91,0.00,,,0.00,weatherlink.com 1.10,2014-02-01 13:04:00,
2014-02-01 08:19:00,26.0,24.0,30.32,SSE,151,0.0,0.0,91,0.00,,,0.00,weatherlink.com 1.10,2014-02-01 13:19:00,
2014-02-01 08:34:00,27.5,24.0,30.32,SSE,150,0.0,1.0,87,0.00,,,0.00,weatherlink.com 1.10,2014-02-01 13:34:00,
2014-02-01 08:49:00,28.4,25.0,30.32,SSE,150,0.0,1.0,86,0.00,,,0.00,weatherlink.com 1.10,2014-02-01 13:49:00,
2014-02-01 09:04:00,30.1,26.0,30.32,SSE,151,0.0,1.0,85,0.00,,,0.00,weatherlink.com 1.10,2014-02-01 14:04:00,
2014-02-01 09:19:00,31.0,26.0,30.32,SSE,150,0.0,1.0,80,0.00,,,0.00,weatherlink.com 1.10,2014-02-01 14:19:00,
2014-02-01 09:35:00,32.9,27.0,30.32,SSE,151,0.0,1.0,79,0.00,,,0.00,weatherlink.com 1.10,2014-02-01 14:35:00,
2014-02-01 09:50:00,33.0,27.0,30.32,SSE,150,0.0,0.0,78,0.00,,,0.00,weatherlink.com 1.10,2014-02-01 14:50:00,
2014-02-01 10:05:00,34.8,27.0,30.31,SSE,151,0.0,0.0,74,0.00,,,0.00,weatherlink.com 1.10,2014-02-01 15:05:00,
2014-02-01 10:20:00,36.2,23.0,30.30,SSE,150,2.0,3.0,60,0.00,,,0.00,weatherlink.com 1.10,2014-02-01 15:20:00,
2014-02-01 10:35:00,36.8,22.0,30.31,SSE,151,4.0,5.0,55,0.00,,,0.00,weatherlink.com 1.10,2014-02-01 15:35:00,
2014-02-01 10:50:00,37.4,23.0,30.31,SSE,150,4.0,9.0,56,0.00,,,0.00,weatherlink.com 1.10,2014-02-01 15:50:00,
2014-02-01 11:05:00,37.5,23.0,30.30,SSE,150,4.0,8.0,56,0.00,,,0.00,weatherlink.com 1.10,2014-02-01 16:05:00,
2014-02-01 11:20:00,37.4,23.0,30.30,SSE,151,3.0,10.0,57,0.00,,,0.00,weatherlink.com 1.10,2014-02-01 16:20:00,
2014-02-01 11:35:00,37.6,25.0,30.30,SSE,150,5.0,7.0,60,0.00,,,0.00,weatherlink.com 1.10,2014-02-01 16:35:00,
2014-02-01 11:50:00,37.6,26.0,30.30,SSE,150,5.0,11.0,63,0.00,,,0.00,weatherlink.com 1.10,2014-02-01 16:50:00,
2014-02-01 12:05:00,37.7,27.0,30.28,SSE,150,3.0,6.0,65,0.00,,,0.00,weatherlink.com 1.10,2014-02-01 17:05:00,
2014-02-01 12:20:00,36.9,29.0,30.28,SSE,150,6.0,7.0,74,0.00,,,0.00,weatherlink.com 1.10,2014-02-01 17:20:00,
2014-02-01 12:35:00,36.3,30.0,30.28,SSE,150,6.0,7.0,79,0.00,,,0.00,weatherlink.com 1.10,2014-02-01 17:35:00,
2014-02-01 12:50:00,36.4,30.0,30.28,SSE,151,7.0,9.0,78,0.00,,,0.00,weatherlink.com 1.10,2014-02-01 17:50:00,
2014-02-01 13:05:00,36.4,30.0,30.27,SSE,150,5.0,9.0,79,0.00,,,0.00,weatherlink.com 1.10,2014-02-01 18:05:00,
2014-02-01 13:20:00,36.3,31.0,30.27,SSE,150,5.0,9.0,80,0.00,,,0.00,weatherlink.com 1.10,2014-02-01 18:20:00,
2014-02-01 13:35:00,36.4,31.0,30.27,SSE,150,5.0,8.0,80,0.00,,,0.00,weatherlink.com 1.10,2014-02-01 18:35:00,
2014-02-01 13:50:00,36.2,31.0,30.26,SSE,150,5.0,8.0,82,0.00,,,0.00,weatherlink.com 1.10,2014-02-01 18:50:00,
2014-02-01 14:05:00,36.4,31.0,30.26,SSE,150,5.0,7.0,80,0.00,,,0.00,weatherlink.com 1.10,2014-02-01 19:05:00,
2014-02-01 14:20:00,36.3,31.0,30.26,SSE,150,6.0,7.0,80,0.00,,,0.00,weatherlink.com 1.10,2014-02-01 19:20:00,
2014-02-01 14:35:00,36.7,30.0,30.25,SSE,150,5.0,6.0,78,0.00,,,0.00,weatherlink.com 1.10,2014-02-01 19:35:00,
2014-02-01 14:50:00,37.1,30.0,30.25,SSE,151,8.0,10.0,76,0.00,,,0.00,weatherlink.com 1.10,2014-02-01 19:50:00,
2014-02-01 15:05:00,37.2,31.0,30.25,SSE,151,6.0,9.0,77,0.00,,,0.00,weatherlink.com 1.10,2014-02-01 20:05:00,
2014-02-01 15:20:00,37.1,31.0,30.25,SSE,151,6.0,8.0,77,0.00,,,0.00,weatherlink.com 1.10,2014-02-01 20:20:00,
2014-02-01 15:35:00,36.5,31.0,30.25,SSE,151,5.0,6.0,80,0.00,,,0.00,weatherlink.com 1.10,2014-02-01 20:35:00,
2014-02-01 15:51:00,36.5,31.0,30.24,SSE,151,5.0,6.0,80,0.00,,,0.00,weatherlink.com 1.10,2014-02-01 20:51:00,
2014-02-01 16:05:00,36.4,31.0,30.25,SSE,150,4.0,6.0,82,0.00,,,0.00,weatherlink.com 1.10,2014-02-01 21:05:00,
2014-02-01 16:20:00,36.5,32.0,30.25,SSE,151,3.0,6.0,82,0.00,,,0.00,weatherlink.com 1.10,2014-02-01 21:20:00,
2014-02-01 16:35:00,36.3,32.0,30.23,SSE,150,3.0,5.0,83,0.00,,,0.00,weatherlink.com 1.10,2014-02-01 21:35:00,
2014-02-01 16:50:00,36.2,32.0,30.22,SSE,151,6.0,11.0,83,0.00,,,0.00,weatherlink.com 1.10,2014-02-01 21:50:00,
2014-02-01 17:05:00,36.1,32.0,30.22,SSE,150,7.0,7.0,84,0.00,,,0.00,weatherlink.com 1.10,2014-02-01 22:05:00,
2014-02-01 17:20:00,35.9,32.0,30.21,SSE,150,7.0,8.0,84,0.00,,,0.00,weatherlink.com 1.10,2014-02-01 22:20:00,
2014-02-01 17:36:00,36.3,31.0,30.21,SSE,150,7.0,9.0,82,0.00,,,0.00,weatherlink.com 1.10,2014-02-01 22:36:00,
2014-02-01 17:50:00,36.2,32.0,30.21,SSE,150,6.0,8.0,83,0.00,,,0.00,weatherlink.com 1.10,2014-02-01 22:50:00,
2014-02-01 18:05:00,36.1,32.0,30.20,SSE,150,4.0,8.0,84,0.00,,,0.00,weatherlink.com 1.10,2014-02-01 23:05:00,
2014-02-01 18:20:00,36.1,32.0,30.20,SSE,150,4.0,8.0,84,0.00,,,0.00,weatherlink.com 1.10,2014-02-01 23:20:00,
2014-02-01 18:35:00,36.4,32.0,30.19,SSE,150,6.0,9.0,83,0.00,,,0.00,weatherlink.com 1.10,2014-02-01 23:35:00,
2014-02-01 18:50:00,36.2,32.0,30.19,SSE,150,6.0,9.0,84,0.00,,,0.00,weatherlink.com 1.10,2014-02-01 23:50:00,
2014-02-01 19:05:00,36.5,32.0,30.19,SSE,149,9.0,12.0,82,0.00,,,0.00,weatherlink.com 1.10,2014-02-02 00:05:00,
2014-02-01 19:20:00,36.5,32.0,30.19,SSE,149,9.0,10.0,83,0.00,,,0.00,weatherlink.com 1.10,2014-02-02 00:20:00,
2014-02-01 19:35:00,36.7,31.0,30.19,SSE,148,15.0,22.0,80,0.00,,,0.00,weatherlink.com 1.10,2014-02-02 00:35:00,
2014-02-01 19:50:00,36.1,32.0,30.19,SSE,148,12.0,20.0,84,0.00,,,0.00,weatherlink.com 1.10,2014-02-02 00:50:00,
2014-02-01 20:05:00,35.4,32.0,30.18,SSE,149,11.0,17.0,88,0.00,,,0.00,weatherlink.com 1.10,2014-02-02 01:05:00,
2014-02-01 20:20:00,35.0,32.0,30.17,SSE,149,7.0,13.0,90,0.00,,,0.00,weatherlink.com 1.10,2014-02-02 01:20:00,
2014-02-01 20:35:00,34.9,32.0,30.15,SSE,149,4.0,8.0,90,0.00,,,0.00,weatherlink.com 1.10,2014-02-02 01:35:00,
2014-02-01 20:50:00,34.9,32.0,30.14,SSE,149,2.0,4.0,90,0.00,,,0.00,weatherlink.com 1.10,2014-02-02 01:50:00,
2014-02-01 21:05:00,35.2,32.0,30.14,SSE,149,4.0,4.0,89,0.00,,,0.00,weatherlink.com 1.10,2014-02-02 02:05:00,
2014-02-01 21:20:00,36.3,33.0,30.12,SSE,149,15.0,17.0,86,0.00,,,0.00,weatherlink.com 1.10,2014-02-02 02:20:00,
2014-02-01 21:35:00,36.3,33.0,30.12,SE,146,17.0,25.0,88,0.00,,,0.00,weatherlink.com 1.10,2014-02-02 02:35:00,
2014-02-01 21:50:00,36.0,33.0,30.11,SSE,149,7.0,17.0,89,0.00,,,0.00,weatherlink.com 1.10,2014-02-02 02:50:00,
2014-02-01 22:05:00,35.8,33.0,30.10,SSE,149,4.0,6.0,88,0.00,,,0.00,weatherlink.com 1.10,2014-02-02 03:05:00,
2014-02-01 22:20:00,35.5,32.0,30.09,SSE,149,1.0,4.0,88,0.00,,,0.00,weatherlink.com 1.10,2014-02-02 03:20:00,
2014-02-01 22:35:00,36.5,33.0,30.07,SSE,149,13.0,15.0,87,0.00,,,0.00,weatherlink.com 1.10,2014-02-02 03:35:00,
2014-02-01 22:51:00,37.7,33.0,30.07,SSE,149,13.0,16.0,82,0.00,,,0.00,weatherlink.com 1.10,2014-02-02 03:51:00,
2014-02-01 23:06:00,38.0,33.0,30.05,SSE,148,12.0,17.0,82,0.00,,,0.00,weatherlink.com 1.10,2014-02-02 04:06:00,
2014-02-01 23:21:00,38.0,33.0,30.05,SSE,149,12.0,16.0,83,0.00,,,0.00,weatherlink.com 1.10,2014-02-02 04:21:00,
2014-02-01 23:36:00,38.0,33.0,30.03,SSE,149,12.0,16.0,83,0.00,,,0.00,weatherlink.com 1.10,2014-02-02 04:36:00,
2014-02-01 23:51:00,37.9,34.0,30.02,SSE,149,11.0,15.0,85,0.00,,,0.00,weatherlink.com 1.10,2014-02-02 04:51:00,